Buhl, Idaho
Current Conditions -  °F | °C
As of 7:53 AM on Friday 19 Dec 2014 (Local Time) from KTWF Reporting Station
Overcast Overcast  
Wind Chill: 36°   Ceiling: 10000
Heat Index: 43°   Visibility: 10mi
Dew Point: 25°   Wind: 15mph
Humidity: 49%   Direction: 170°S
Pressure: 30.06"   Gusts: NA
Location:  42.6°N, 114.76°W
Report Text: KTWF 191453Z 17013KT 10SM OVC100 06/M04 A3006 RMK AO2 SLP167 T00611039 57003
Loading
Personal Weather Stations






























Interactive Weather Map New forecast layout! Learn more

10-Day Weather Forecast

Advertisements
Track Severe Weather on mobile